createdAt,value
2019-02-19T00:00:04.592Z,6.30
2019-02-19T00:01:11.961Z,6.30
2019-02-19T00:02:18.731Z,6.30
2019-02-19T00:03:25.776Z,6.20
2019-02-19T00:04:32.495Z,6.20
2019-02-19T00:05:39.407Z,6.20
2019-02-19T00:06:46.448Z,6.20
2019-02-19T00:07:53.903Z,6.20
2019-02-19T00:09:01.062Z,6.20
2019-02-19T00:10:07.969Z,6.10
2019-02-19T00:11:15.048Z,6.20
2019-02-19T00:12:22.740Z,6.20
2019-02-19T00:13:30.879Z,6.20
2019-02-19T00:14:37.921Z,6.20
2019-02-19T00:15:44.601Z,6.20
2019-02-19T00:16:51.289Z,6.20
2019-02-19T00:17:57.983Z,6.10
2019-02-19T00:19:05.562Z,6.20
2019-02-19T00:20:12.456Z,6.20
2019-02-19T00:21:19.173Z,6.20
2019-02-19T00:22:25.888Z,6.10
2019-02-19T00:23:34.086Z,6.20
2019-02-19T00:24:40.802Z,6.20
2019-02-19T00:25:47.809Z,6.20
2019-02-19T00:26:54.462Z,6.20
2019-02-19T00:28:01.145Z,6.30
2019-02-19T00:29:08.022Z,6.30
2019-02-19T00:30:14.678Z,6.30
2019-02-19T00:31:21.493Z,6.40
2019-02-19T00:32:28.228Z,6.50
2019-02-19T00:33:35.328Z,6.50
2019-02-19T00:34:42.175Z,6.50
2019-02-19T00:35:49.257Z,6.60
2019-02-19T00:36:56.435Z,6.70
2019-02-19T00:38:03.148Z,6.80
2019-02-19T00:39:10.312Z,6.80
2019-02-19T00:40:17.098Z,6.80
2019-02-19T00:41:23.863Z,6.90
2019-02-19T00:42:30.928Z,6.90
2019-02-19T00:43:37.961Z,7.00
2019-02-19T00:44:44.663Z,7.00
2019-02-19T00:45:51.369Z,7.10
2019-02-19T00:46:58.373Z,7.20
2019-02-19T00:48:05.356Z,7.20
2019-02-19T00:49:12.419Z,7.20
2019-02-19T00:50:19.529Z,7.30
2019-02-19T00:51:26.858Z,7.30
2019-02-19T00:52:33.576Z,7.40
2019-02-19T00:53:40.651Z,7.40
2019-02-19T00:54:48.019Z,7.30
2019-02-19T00:55:55.400Z,7.30
2019-02-19T00:57:03.025Z,7.30
2019-02-19T00:58:09.793Z,7.30
2019-02-19T00:59:16.868Z,7.30
2019-02-19T01:00:23.982Z,7.30
2019-02-19T01:01:31.019Z,7.40
2019-02-19T01:02:38.155Z,7.40
2019-02-19T01:03:44.826Z,7.40
2019-02-19T01:04:51.931Z,7.40
2019-02-19T01:05:59.140Z,7.40
2019-02-19T01:07:05.861Z,7.40
2019-02-19T01:08:13.299Z,7.40
2019-02-19T01:09:21.988Z,7.40
2019-02-19T01:10:29.365Z,7.40
2019-02-19T01:11:36.384Z,7.40
2019-02-19T01:12:43.347Z,7.40
2019-02-19T01:13:50.394Z,7.40
2019-02-19T01:14:57.255Z,7.40
2019-02-19T01:16:04.296Z,7.40
2019-02-19T01:17:11.463Z,7.40
2019-02-19T01:18:18.489Z,7.40
2019-02-19T01:19:25.238Z,7.40
2019-02-19T01:20:31.932Z,7.40
2019-02-19T01:21:38.959Z,7.50
2019-02-19T01:22:45.763Z,7.50
2019-02-19T01:23:52.435Z,7.50
2019-02-19T01:24:59.175Z,7.50
2019-02-19T01:26:06.931Z,7.50
2019-02-19T01:27:13.703Z,7.50
2019-02-19T01:28:20.800Z,7.50
2019-02-19T01:29:27.489Z,7.50
2019-02-19T01:30:34.194Z,7.50
2019-02-19T01:31:40.890Z,7.50
2019-02-19T01:32:47.602Z,7.50
2019-02-19T01:33:54.658Z,7.50
2019-02-19T01:35:02.026Z,7.50
2019-02-19T01:36:08.787Z,7.50
2019-02-19T01:37:15.453Z,7.50
2019-02-19T01:38:22.537Z,7.40
2019-02-19T01:39:29.232Z,7.40
2019-02-19T01:40:36.072Z,7.40
2019-02-19T01:41:43.488Z,7.40
2019-02-19T01:42:50.178Z,7.40
2019-02-19T01:43:57.258Z,7.40
2019-02-19T01:45:04.598Z,7.40
2019-02-19T01:46:11.434Z,7.40
2019-02-19T01:47:18.838Z,7.40
2019-02-19T01:48:25.923Z,7.30
2019-02-19T01:49:32.705Z,7.40
2019-02-19T01:50:39.437Z,7.30
2019-02-19T01:51:46.128Z,7.20
2019-02-19T01:52:52.871Z,7.20
2019-02-19T01:54:00.017Z,7.20
2019-02-19T01:55:07.797Z,7.20
2019-02-19T01:56:14.538Z,7.20
2019-02-19T01:57:21.590Z,7.10
2019-02-19T01:58:28.252Z,7.10
2019-02-19T01:59:35.275Z,7.10
2019-02-19T02:00:42.214Z,7.10
2019-02-19T02:01:49.234Z,7.10
2019-02-19T02:02:56.950Z,7.00
2019-02-19T02:04:03.944Z,7.10
2019-02-19T02:05:11.491Z,7.00
2019-02-19T02:06:18.934Z,7.00
2019-02-19T02:07:25.978Z,7.00
2019-02-19T02:08:33.072Z,7.00
2019-02-19T02:09:39.745Z,7.00
2019-02-19T02:10:46.398Z,7.00
2019-02-19T02:11:53.133Z,7.00
2019-02-19T02:12:59.855Z,6.90
2019-02-19T02:14:06.681Z,6.90
2019-02-19T02:15:13.431Z,6.90
2019-02-19T02:16:20.547Z,7.00
2019-02-19T02:17:27.657Z,6.90
2019-02-19T02:18:34.821Z,6.90
2019-02-19T02:19:41.637Z,6.90
2019-02-19T02:20:48.689Z,6.90
2019-02-19T02:21:55.422Z,6.90
2019-02-19T02:23:02.183Z,6.90
2019-02-19T02:24:08.924Z,6.90
2019-02-19T02:25:16.046Z,6.80
2019-02-19T02:26:23.086Z,6.80
2019-02-19T02:27:30.116Z,6.80
2019-02-19T02:28:37.056Z,6.80
2019-02-19T02:29:43.742Z,6.80
2019-02-19T02:30:51.135Z,6.80
2019-02-19T02:31:57.779Z,6.80
2019-02-19T02:33:04.967Z,6.80
2019-02-19T02:34:11.680Z,6.80
2019-02-19T02:35:18.751Z,6.80
2019-02-19T02:36:25.804Z,6.80
2019-02-19T02:37:32.535Z,6.80
2019-02-19T02:38:39.525Z,6.80
2019-02-19T02:39:46.259Z,6.80
2019-02-19T02:40:55.051Z,6.70
2019-02-19T02:42:02.572Z,6.80
2019-02-19T02:43:09.323Z,6.80
2019-02-19T02:44:16.963Z,6.70
2019-02-19T02:45:23.687Z,6.70
2019-02-19T02:46:30.385Z,6.70
2019-02-19T02:47:37.150Z,6.70
2019-02-19T02:48:43.864Z,6.70
2019-02-19T02:49:50.625Z,6.70
2019-02-19T02:50:57.592Z,6.70
2019-02-19T02:52:04.768Z,6.60
2019-02-19T02:53:11.509Z,6.60
2019-02-19T02:54:18.622Z,6.60
2019-02-19T02:55:25.695Z,6.60
2019-02-19T02:56:32.387Z,6.60
2019-02-19T02:57:39.405Z,6.50
2019-02-19T02:58:46.800Z,6.50
2019-02-19T02:59:53.711Z,6.50
2019-02-19T03:01:00.555Z,6.50
2019-02-19T03:02:07.656Z,6.50
2019-02-19T03:03:14.363Z,6.50
2019-02-19T03:04:21.508Z,6.50
2019-02-19T03:05:28.282Z,6.50
2019-02-19T03:06:40.002Z,6.50
2019-02-19T03:07:53.207Z,6.50
2019-02-19T03:08:59.975Z,6.40
2019-02-19T03:10:07.342Z,6.40
2019-02-19T03:11:14.053Z,6.40
2019-02-19T03:12:20.780Z,6.40
2019-02-19T03:13:27.533Z,6.40
2019-02-19T03:14:34.226Z,6.40
2019-02-19T03:15:41.017Z,6.40
2019-02-19T03:16:47.704Z,6.40
2019-02-19T03:17:54.737Z,6.40
2019-02-19T03:19:01.433Z,6.40
2019-02-19T03:20:08.690Z,6.40
2019-02-19T03:21:15.488Z,6.40
2019-02-19T03:22:22.487Z,6.30
2019-02-19T03:23:29.209Z,6.40
2019-02-19T03:24:36.257Z,6.30
2019-02-19T03:25:42.984Z,6.30
2019-02-19T03:26:49.700Z,6.40
2019-02-19T03:27:57.137Z,6.30
2019-02-19T03:29:04.240Z,6.30
2019-02-19T03:30:12.511Z,6.30
2019-02-19T03:31:19.707Z,6.30
2019-02-19T03:32:26.387Z,6.30
2019-02-19T03:33:33.473Z,6.30
2019-02-19T03:34:40.517Z,6.30
2019-02-19T03:35:47.434Z,6.20
2019-02-19T03:36:54.197Z,6.20
2019-02-19T03:38:01.229Z,6.20
2019-02-19T03:39:08.266Z,6.20
2019-02-19T03:40:14.962Z,6.20
2019-02-19T03:41:21.765Z,6.20
2019-02-19T03:42:28.747Z,6.20
2019-02-19T03:43:35.489Z,6.20
2019-02-19T03:44:42.147Z,6.30
2019-02-19T03:45:49.213Z,6.20
2019-02-19T03:46:56.327Z,6.20
2019-02-19T03:48:03.359Z,6.20
2019-02-19T03:49:10.367Z,6.20
2019-02-19T03:50:17.478Z,6.20
2019-02-19T03:51:24.516Z,6.30
2019-02-19T03:52:31.604Z,6.20
2019-02-19T03:53:38.744Z,6.20
2019-02-19T03:54:45.754Z,6.20
2019-02-19T03:55:52.836Z,6.20
2019-02-19T03:56:59.566Z,6.20
2019-02-19T03:58:06.281Z,6.20
2019-02-19T03:59:12.983Z,6.20
2019-02-19T04:00:19.771Z,6.20
2019-02-19T04:01:26.920Z,6.20
2019-02-19T04:02:33.603Z,6.20
2019-02-19T04:03:40.305Z,6.20
2019-02-19T04:04:47.020Z,6.20
2019-02-19T04:05:53.790Z,6.20
2019-02-19T04:07:00.503Z,6.20
2019-02-19T04:08:07.522Z,6.20
2019-02-19T04:09:15.174Z,6.20
2019-02-19T04:10:21.928Z,6.20
2019-02-19T04:11:28.993Z,6.10
2019-02-19T04:12:35.685Z,6.10
2019-02-19T04:13:42.700Z,6.10
2019-02-19T04:14:49.389Z,6.20
2019-02-19T04:15:56.758Z,6.20
2019-02-19T04:17:03.863Z,6.20
2019-02-19T04:18:10.899Z,6.20
2019-02-19T04:19:17.606Z,6.20
2019-02-19T04:20:24.294Z,6.20
2019-02-19T04:21:31.552Z,6.20
2019-02-19T04:22:38.322Z,6.20
2019-02-19T04:23:45.685Z,6.20
2019-02-19T04:24:52.356Z,6.20
2019-02-19T04:25:59.395Z,6.20
2019-02-19T04:27:06.099Z,6.20
2019-02-19T04:28:13.172Z,6.20
2019-02-19T04:29:19.843Z,6.20
2019-02-19T04:30:27.265Z,6.20
2019-02-19T04:31:34.363Z,6.20
2019-02-19T04:32:41.085Z,6.20
2019-02-19T04:33:48.693Z,6.20
2019-02-19T04:34:55.451Z,6.30
2019-02-19T04:36:02.571Z,6.30
2019-02-19T04:37:09.721Z,6.30
2019-02-19T04:38:16.388Z,6.30
2019-02-19T04:39:23.439Z,6.30
2019-02-19T04:40:30.177Z,6.30
2019-02-19T04:41:36.955Z,6.40
2019-02-19T04:42:43.962Z,6.30
2019-02-19T04:43:50.697Z,6.30
2019-02-19T04:44:57.573Z,6.30
2019-02-19T04:46:04.247Z,6.30
2019-02-19T04:47:11.385Z,6.40
2019-02-19T04:48:18.128Z,6.30
2019-02-19T04:49:24.916Z,6.40
2019-02-19T04:50:31.661Z,6.30
2019-02-19T04:51:38.721Z,6.30
2019-02-19T04:52:45.986Z,6.30
2019-02-19T04:53:52.643Z,6.30
2019-02-19T04:54:59.789Z,6.30
2019-02-19T04:56:07.074Z,6.30
2019-02-19T04:57:19.580Z,6.30
2019-02-19T04:58:26.303Z,6.30
2019-02-19T04:59:33.319Z,6.30
2019-02-19T05:00:40.009Z,6.30
2019-02-19T05:01:47.073Z,6.30
2019-02-19T05:02:53.836Z,6.30
2019-02-19T05:04:00.555Z,6.30
2019-02-19T05:05:07.689Z,6.30
2019-02-19T05:06:14.748Z,6.40
2019-02-19T05:07:21.432Z,6.40
2019-02-19T05:08:28.524Z,6.40
2019-02-19T05:09:35.469Z,6.30
2019-02-19T05:10:42.508Z,6.40
2019-02-19T05:11:49.887Z,6.40
2019-02-19T05:12:57.320Z,6.30
2019-02-19T05:14:05.732Z,6.40
2019-02-19T05:15:12.516Z,6.30
2019-02-19T05:16:19.168Z,6.30
2019-02-19T05:17:25.856Z,6.30
2019-02-19T05:18:32.783Z,6.30
2019-02-19T05:19:39.797Z,6.30
2019-02-19T05:20:46.859Z,6.30
2019-02-19T05:21:53.981Z,6.30
2019-02-19T05:23:00.708Z,6.30
2019-02-19T05:24:07.423Z,6.30
2019-02-19T05:25:14.158Z,6.30
2019-02-19T05:26:22.610Z,6.30
2019-02-19T05:27:29.287Z,6.30
2019-02-19T05:28:36.001Z,6.30
2019-02-19T05:29:43.112Z,6.30
2019-02-19T05:30:49.867Z,6.30
2019-02-19T05:31:57.586Z,6.20
2019-02-19T05:33:04.796Z,6.20
2019-02-19T05:34:11.478Z,6.20
2019-02-19T05:35:18.510Z,6.20
2019-02-19T05:36:25.517Z,6.20
2019-02-19T05:37:32.205Z,6.20
2019-02-19T05:38:38.899Z,6.20
2019-02-19T05:39:45.601Z,6.10
2019-02-19T05:40:52.313Z,6.20
2019-02-19T05:41:58.983Z,6.20
2019-02-19T05:43:05.762Z,6.10
2019-02-19T05:44:12.437Z,6.10
2019-02-19T05:45:19.782Z,6.10
2019-02-19T05:46:26.841Z,6.10
2019-02-19T05:47:33.581Z,6.10
2019-02-19T05:48:40.430Z,6.00
2019-02-19T05:49:47.146Z,6.00
2019-02-19T05:50:53.872Z,6.00
2019-02-19T05:52:00.694Z,6.00
2019-02-19T05:53:07.423Z,6.00
2019-02-19T05:54:14.082Z,6.00
2019-02-19T05:55:20.788Z,6.00
2019-02-19T05:56:27.594Z,6.00
2019-02-19T05:57:34.636Z,6.00
2019-02-19T05:58:41.895Z,6.00
2019-02-19T05:59:48.641Z,6.00
2019-02-19T06:00:55.366Z,6.00
2019-02-19T06:02:02.099Z,6.00
2019-02-19T06:03:08.875Z,6.00
2019-02-19T06:04:15.563Z,5.90
2019-02-19T06:05:22.629Z,5.90
2019-02-19T06:06:29.321Z,5.90
2019-02-19T06:07:36.574Z,5.90
2019-02-19T06:08:43.316Z,5.90
2019-02-19T06:09:50.040Z,5.90
2019-02-19T06:10:56.775Z,5.90
2019-02-19T06:12:03.995Z,5.80
2019-02-19T06:13:11.055Z,5.90
2019-02-19T06:14:17.799Z,5.80
2019-02-19T06:15:24.923Z,5.80
2019-02-19T06:16:32.120Z,5.80
2019-02-19T06:17:39.341Z,5.80
2019-02-19T06:18:46.373Z,5.80
2019-02-19T06:19:53.412Z,5.80
2019-02-19T06:21:00.502Z,5.80
2019-02-19T06:22:07.836Z,5.80
2019-02-19T06:23:14.523Z,5.80
2019-02-19T06:24:21.213Z,5.80
2019-02-19T06:25:27.926Z,5.80
2019-02-19T06:26:34.633Z,5.80
2019-02-19T06:27:41.735Z,5.80
2019-02-19T06:28:48.912Z,5.80
2019-02-19T06:29:55.985Z,5.70
2019-02-19T06:31:02.708Z,5.80
2019-02-19T06:32:09.446Z,5.80
2019-02-19T06:33:16.507Z,5.80
2019-02-19T06:34:23.882Z,5.80
2019-02-19T06:35:30.608Z,5.80
2019-02-19T06:36:37.870Z,5.70
2019-02-19T06:37:45.221Z,5.70
2019-02-19T06:38:52.559Z,5.70
2019-02-19T06:39:59.246Z,5.70
2019-02-19T06:41:06.602Z,5.70
2019-02-19T06:42:13.840Z,5.70
2019-02-19T06:43:20.816Z,5.70
2019-02-19T06:44:27.529Z,5.70
2019-02-19T06:45:41.127Z,5.70
2019-02-19T06:46:47.106Z,5.70
2019-02-19T06:47:54.454Z,5.70
2019-02-19T06:49:01.913Z,5.70
2019-02-19T06:50:08.916Z,5.70
2019-02-19T06:51:15.663Z,5.70
2019-02-19T06:52:23.111Z,5.70
2019-02-19T06:53:31.347Z,5.70
2019-02-19T06:54:38.024Z,5.70
2019-02-19T06:55:45.111Z,5.70
2019-02-19T06:56:51.810Z,5.70
2019-02-19T06:57:58.502Z,5.60
2019-02-19T06:59:05.364Z,5.60
2019-02-19T07:00:12.426Z,5.60
2019-02-19T07:01:23.438Z,5.60
2019-02-19T07:02:48.936Z,5.60
2019-02-19T07:04:02.943Z,5.60
2019-02-19T07:05:15.766Z,5.60
2019-02-19T07:06:22.854Z,5.60
2019-02-19T07:07:29.591Z,5.60
2019-02-19T07:08:37.114Z,5.50
2019-02-19T07:09:44.064Z,5.50
2019-02-19T07:10:50.789Z,5.50
2019-02-19T07:11:58.878Z,5.50
2019-02-19T07:13:05.653Z,5.50
2019-02-19T07:14:12.360Z,5.50
2019-02-19T07:15:19.353Z,5.40
2019-02-19T07:16:26.322Z,5.50
2019-02-19T07:17:33.180Z,5.40
2019-02-19T07:18:40.251Z,5.40
2019-02-19T07:19:47.699Z,5.40
2019-02-19T07:20:54.413Z,5.40
2019-02-19T07:22:01.079Z,5.40
2019-02-19T07:23:08.199Z,5.40
2019-02-19T07:24:14.928Z,5.40
2019-02-19T07:25:21.623Z,5.40
2019-02-19T07:26:28.322Z,5.40
2019-02-19T07:27:35.790Z,5.30
2019-02-19T07:28:42.854Z,5.40
2019-02-19T07:29:49.544Z,5.30
2019-02-19T07:30:56.294Z,5.30
2019-02-19T07:32:03.075Z,5.30
2019-02-19T07:33:09.809Z,5.30
2019-02-19T07:34:16.812Z,5.30
2019-02-19T07:35:23.527Z,5.30
2019-02-19T07:36:30.601Z,5.30
2019-02-19T07:37:37.631Z,5.30
2019-02-19T07:38:44.340Z,5.30
2019-02-19T07:39:51.063Z,5.30
2019-02-19T07:40:57.757Z,5.30
2019-02-19T07:42:04.534Z,5.30
2019-02-19T07:43:11.241Z,5.40
2019-02-19T07:44:18.359Z,5.40
2019-02-19T07:45:25.031Z,5.40
2019-02-19T07:46:31.774Z,5.40
2019-02-19T07:47:38.538Z,5.40
2019-02-19T07:48:45.589Z,5.40
2019-02-19T07:49:53.027Z,5.40
2019-02-19T07:50:59.727Z,5.40
2019-02-19T07:52:06.471Z,5.50
2019-02-19T07:53:13.941Z,5.50
2019-02-19T07:54:20.532Z,5.50
2019-02-19T07:55:26.396Z,5.50
2019-02-19T07:56:33.564Z,5.60
2019-02-19T07:57:39.487Z,5.60
2019-02-19T07:58:46.415Z,5.60
2019-02-19T07:59:53.092Z,5.60
2019-02-19T08:01:00.144Z,5.60
2019-02-19T08:02:06.910Z,5.70
2019-02-19T08:03:14.325Z,5.70
2019-02-19T08:04:21.401Z,5.70
2019-02-19T08:05:28.312Z,5.70
2019-02-19T08:06:35.128Z,5.70
2019-02-19T08:07:42.504Z,5.80
2019-02-19T08:08:49.245Z,5.80
2019-02-19T08:09:55.932Z,5.80
2019-02-19T08:11:03.108Z,5.90
2019-02-19T08:12:10.202Z,6.00
2019-02-19T08:13:16.887Z,6.00
2019-02-19T08:14:23.626Z,6.10
2019-02-19T08:15:30.762Z,6.10
2019-02-19T08:16:37.495Z,6.10
2019-02-19T08:17:44.486Z,6.10
2019-02-19T08:18:51.543Z,6.10
2019-02-19T08:19:59.094Z,6.10
2019-02-19T08:21:06.111Z,6.20
2019-02-19T08:22:12.984Z,6.20
2019-02-19T08:23:19.752Z,6.30
2019-02-19T08:24:27.131Z,6.20
2019-02-19T08:25:33.877Z,6.20
2019-02-19T08:26:40.601Z,6.30
2019-02-19T08:27:47.305Z,6.30
2019-02-19T08:29:02.939Z,6.30
2019-02-19T08:30:02.496Z,6.30
2019-02-19T08:31:09.306Z,6.30
2019-02-19T08:32:15.996Z,6.30
2019-02-19T08:33:22.730Z,6.30
2019-02-19T08:34:29.961Z,6.40
2019-02-19T08:35:37.530Z,6.30
2019-02-19T08:36:44.491Z,6.30
2019-02-19T08:37:51.457Z,6.30
2019-02-19T08:38:58.514Z,6.30
2019-02-19T08:40:05.218Z,6.30
2019-02-19T08:41:12.281Z,6.40
2019-02-19T08:42:19.092Z,6.50
2019-02-19T08:43:26.342Z,6.50
2019-02-19T08:44:33.422Z,6.60
2019-02-19T08:45:40.293Z,6.60
2019-02-19T08:46:47.916Z,6.60
2019-02-19T08:47:54.619Z,6.50
2019-02-19T08:49:01.809Z,6.50
2019-02-19T08:50:08.701Z,6.50
2019-02-19T08:51:15.413Z,6.50
2019-02-19T08:52:22.453Z,6.50
2019-02-19T08:53:31.534Z,6.50
2019-02-19T08:54:37.968Z,6.60
2019-02-19T08:55:44.746Z,6.60
2019-02-19T08:56:51.470Z,6.60
2019-02-19T08:57:58.191Z,6.70
2019-02-19T08:59:05.325Z,6.80
2019-02-19T09:00:12.612Z,6.80
2019-02-19T09:01:19.376Z,6.80
2019-02-19T09:02:26.044Z,6.80
2019-02-19T09:03:36.036Z,6.80
2019-02-19T09:04:43.172Z,6.80
2019-02-19T09:05:49.981Z,6.90
2019-02-19T09:06:57.024Z,6.90
2019-02-19T09:08:04.160Z,7.00
2019-02-19T09:09:11.488Z,7.10
2019-02-19T09:10:18.598Z,7.00
2019-02-19T09:11:25.330Z,7.00
2019-02-19T09:12:32.441Z,7.10
2019-02-19T09:13:39.151Z,7.30
2019-02-19T09:14:46.475Z,7.30
2019-02-19T09:15:53.156Z,7.40
2019-02-19T09:16:59.966Z,7.40
2019-02-19T09:18:06.800Z,7.40
2019-02-19T09:19:13.814Z,7.40
2019-02-19T09:20:20.877Z,7.30
2019-02-19T09:21:27.607Z,7.30
2019-02-19T09:22:34.607Z,7.30
2019-02-19T09:23:42.347Z,7.30
2019-02-19T09:24:49.559Z,7.30
2019-02-19T09:25:56.530Z,7.30
2019-02-19T09:27:03.278Z,7.30
2019-02-19T09:28:10.110Z,7.30
2019-02-19T09:29:16.780Z,7.30
2019-02-19T09:30:23.790Z,7.30
2019-02-19T09:31:30.848Z,7.30
2019-02-19T09:32:37.618Z,7.30
2019-02-19T09:33:44.305Z,7.30
2019-02-19T09:34:52.656Z,7.40
2019-02-19T09:35:59.520Z,7.50
2019-02-19T09:37:06.605Z,7.50
2019-02-19T09:38:13.316Z,7.50
2019-02-19T09:39:20.004Z,7.50
2019-02-19T09:40:27.013Z,7.50
2019-02-19T09:41:33.795Z,7.50
2019-02-19T09:42:40.539Z,7.50
2019-02-19T09:43:47.639Z,7.50
2019-02-19T09:44:54.318Z,7.60
2019-02-19T09:46:01.066Z,7.60
2019-02-19T09:47:08.133Z,7.60
2019-02-19T09:48:15.170Z,7.60
2019-02-19T09:49:21.943Z,7.60
2019-02-19T09:50:28.617Z,7.50
2019-02-19T09:51:35.407Z,7.50
2019-02-19T09:52:42.129Z,7.60
2019-02-19T09:53:48.797Z,7.60
2019-02-19T09:54:55.982Z,7.70
2019-02-19T09:56:03.271Z,7.70
2019-02-19T09:57:10.080Z,7.70
2019-02-19T09:58:16.752Z,7.60
2019-02-19T09:59:23.465Z,7.70
2019-02-19T10:00:30.240Z,7.70
2019-02-19T10:01:37.202Z,7.70
2019-02-19T10:02:44.308Z,7.70
2019-02-19T10:03:50.992Z,7.70
2019-02-19T10:04:57.689Z,7.80
2019-02-19T10:06:04.625Z,7.80
2019-02-19T10:07:11.327Z,7.80
2019-02-19T10:08:18.323Z,7.80
2019-02-19T10:09:25.047Z,7.80
2019-02-19T10:10:31.776Z,7.80
2019-02-19T10:11:38.534Z,7.80
2019-02-19T10:12:45.520Z,7.90
2019-02-19T10:13:52.768Z,7.80
2019-02-19T10:14:59.808Z,7.90
2019-02-19T10:16:06.898Z,7.90
2019-02-19T10:17:13.577Z,8.00
2019-02-19T10:18:20.321Z,8.00
2019-02-19T10:19:27.111Z,8.10
2019-02-19T10:20:33.874Z,8.00
2019-02-19T10:21:40.566Z,8.00
2019-02-19T10:22:47.590Z,8.00
2019-02-19T10:23:54.580Z,8.00
2019-02-19T10:25:01.631Z,8.00
2019-02-19T10:26:08.314Z,8.00
2019-02-19T10:27:15.829Z,8.00
2019-02-19T10:28:22.875Z,8.00
2019-02-19T10:29:29.595Z,8.10
2019-02-19T10:30:36.714Z,8.10
2019-02-19T10:31:43.818Z,8.10
2019-02-19T10:32:51.395Z,8.10
2019-02-19T10:33:58.085Z,8.10
2019-02-19T10:35:05.271Z,8.10
2019-02-19T10:36:11.945Z,8.30
2019-02-19T10:37:18.682Z,8.40
2019-02-19T10:38:26.067Z,8.50
2019-02-19T10:39:33.173Z,8.60
2019-02-19T10:40:39.854Z,8.60
2019-02-19T10:41:47.468Z,8.70
2019-02-19T10:42:54.577Z,8.70
2019-02-19T10:44:01.833Z,8.60
2019-02-19T10:45:11.476Z,8.60
2019-02-19T10:46:18.160Z,8.60
2019-02-19T10:47:24.848Z,8.50
2019-02-19T10:48:32.230Z,8.50
2019-02-19T10:49:39.473Z,8.60
2019-02-19T10:50:46.212Z,8.60
2019-02-19T10:51:53.255Z,8.70
2019-02-19T10:52:59.941Z,8.80
2019-02-19T10:54:07.009Z,8.80
2019-02-19T10:55:13.744Z,8.80
2019-02-19T10:56:20.447Z,8.70
2019-02-19T10:57:27.140Z,8.70
2019-02-19T10:58:33.846Z,8.60
2019-02-19T10:59:40.538Z,8.60
2019-02-19T11:00:47.727Z,8.60
2019-02-19T11:01:54.846Z,8.60
2019-02-19T11:03:01.506Z,8.60
2019-02-19T11:04:08.208Z,8.60
2019-02-19T11:05:15.427Z,8.70
2019-02-19T11:06:22.810Z,8.80
2019-02-19T11:07:29.574Z,8.80
2019-02-19T11:08:36.327Z,8.90
2019-02-19T11:09:43.005Z,9.00
2019-02-19T11:10:50.892Z,9.10
2019-02-19T11:11:58.156Z,9.10
2019-02-19T11:13:04.925Z,9.10
2019-02-19T11:14:11.641Z,9.10
2019-02-19T11:15:18.717Z,9.10
2019-02-19T11:16:25.429Z,9.10
2019-02-19T11:17:32.672Z,9.10
2019-02-19T11:18:39.727Z,9.20
2019-02-19T11:19:46.404Z,9.10
2019-02-19T11:20:53.809Z,9.20
2019-02-19T11:22:00.855Z,9.10
2019-02-19T11:23:07.723Z,9.20
2019-02-19T11:24:14.552Z,9.20
2019-02-19T11:25:21.278Z,9.20
2019-02-19T11:26:28.454Z,9.30
2019-02-19T11:27:35.890Z,9.20
2019-02-19T11:28:43.268Z,9.10
2019-02-19T11:29:50.003Z,9.10
2019-02-19T11:30:57.316Z,9.10
2019-02-19T11:32:04.033Z,9.10
2019-02-19T11:33:10.752Z,9.00
2019-02-19T11:34:17.882Z,9.00
2019-02-19T11:35:25.073Z,9.10
2019-02-19T11:36:32.092Z,9.10
2019-02-19T11:37:38.969Z,9.20
2019-02-19T11:38:45.929Z,9.20
2019-02-19T11:39:52.618Z,9.20
2019-02-19T11:40:59.299Z,9.10
2019-02-19T11:42:06.006Z,9.10
2019-02-19T11:43:13.037Z,9.20
2019-02-19T11:44:19.785Z,9.20
2019-02-19T11:45:27.161Z,9.20
2019-02-19T11:46:34.216Z,9.10
2019-02-19T11:47:40.925Z,9.20
2019-02-19T11:48:47.987Z,9.40
2019-02-19T11:49:54.695Z,9.50
2019-02-19T11:51:01.427Z,9.40
2019-02-19T11:52:08.542Z,9.50
2019-02-19T11:53:15.293Z,9.50
2019-02-19T11:54:22.262Z,9.60
2019-02-19T11:55:29.644Z,9.50
2019-02-19T11:56:36.390Z,9.50
2019-02-19T11:57:43.098Z,9.40
2019-02-19T11:58:49.871Z,9.40
2019-02-19T11:59:56.552Z,9.40
2019-02-19T12:01:04.865Z,9.40
2019-02-19T12:02:14.874Z,9.50
2019-02-19T12:03:21.573Z,9.50
2019-02-19T12:04:28.762Z,9.50
2019-02-19T12:05:35.623Z,9.60
2019-02-19T12:06:42.774Z,9.60
2019-02-19T12:07:49.522Z,9.60
2019-02-19T12:08:56.926Z,9.50
2019-02-19T12:10:03.686Z,9.50
2019-02-19T12:11:10.464Z,9.50
2019-02-19T12:12:17.187Z,9.40
2019-02-19T12:13:24.191Z,9.30
2019-02-19T12:14:31.212Z,9.30
2019-02-19T12:15:38.255Z,9.20
2019-02-19T12:16:44.931Z,9.30
2019-02-19T12:17:52.196Z,9.20
2019-02-19T12:18:59.503Z,9.20
2019-02-19T12:20:07.646Z,9.20
2019-02-19T12:21:14.396Z,9.20
2019-02-19T12:22:21.585Z,9.10
2019-02-19T12:23:28.502Z,9.10
2019-02-19T12:24:37.105Z,9.10
2019-02-19T12:25:44.232Z,9.10
2019-02-19T12:26:50.937Z,9.10
2019-02-19T12:27:57.996Z,9.10
2019-02-19T12:29:04.970Z,9.20
2019-02-19T12:30:13.940Z,9.20
2019-02-19T12:31:20.929Z,9.30
2019-02-19T12:32:27.622Z,9.30
2019-02-19T12:33:34.775Z,9.30
2019-02-19T12:34:41.532Z,9.40
2019-02-19T12:35:48.207Z,9.50
2019-02-19T12:36:54.965Z,9.50
2019-02-19T12:38:01.656Z,9.50
2019-02-19T12:39:09.235Z,9.50
2019-02-19T12:40:16.272Z,9.60
2019-02-19T12:41:22.968Z,9.60
2019-02-19T12:42:29.674Z,9.60
2019-02-19T12:43:36.781Z,9.60
2019-02-19T12:44:44.186Z,9.70
2019-02-19T12:45:51.430Z,9.70
2019-02-19T12:46:58.857Z,9.70
2019-02-19T12:48:05.907Z,9.70
2019-02-19T12:49:12.608Z,9.60
2019-02-19T12:50:19.786Z,9.70
2019-02-19T12:51:27.336Z,9.70
2019-02-19T12:52:34.169Z,9.70
2019-02-19T12:53:41.046Z,9.80
2019-02-19T12:54:47.763Z,9.80
2019-02-19T12:55:54.793Z,9.80
2019-02-19T12:57:01.486Z,9.80
2019-02-19T12:58:08.574Z,9.70
2019-02-19T12:59:15.288Z,9.80
2019-02-19T13:00:22.000Z,9.80
2019-02-19T13:01:28.709Z,9.80
2019-02-19T13:02:35.464Z,9.80
2019-02-19T13:03:42.520Z,9.70
2019-02-19T13:04:49.253Z,9.70
2019-02-19T13:05:56.274Z,9.70
2019-02-19T13:07:03.462Z,9.70
2019-02-19T13:08:10.502Z,9.70
2019-02-19T13:09:17.548Z,9.70
2019-02-19T13:10:24.568Z,9.80
2019-02-19T13:11:31.622Z,9.90
2019-02-19T13:12:38.750Z,9.80
2019-02-19T13:13:45.436Z,9.90
2019-02-19T13:14:52.183Z,9.90
2019-02-19T13:15:59.297Z,9.80
2019-02-19T13:17:06.201Z,9.90
2019-02-19T13:18:13.215Z,9.90
2019-02-19T13:19:20.653Z,10.00
2019-02-19T13:20:27.340Z,10.00
2019-02-19T13:21:34.093Z,10.00
2019-02-19T13:22:40.958Z,10.00
2019-02-19T13:23:47.697Z,10.10
2019-02-19T13:24:54.396Z,10.10
2019-02-19T13:26:02.296Z,10.00
2019-02-19T13:27:09.106Z,9.90
2019-02-19T13:28:15.787Z,9.80
2019-02-19T13:29:22.913Z,9.80
2019-02-19T13:30:29.624Z,9.70
2019-02-19T13:31:36.724Z,9.70
2019-02-19T13:32:43.833Z,9.60
2019-02-19T13:33:50.478Z,9.60
2019-02-19T13:34:57.206Z,9.60
2019-02-19T13:36:03.938Z,9.60
2019-02-19T13:37:10.616Z,9.60
2019-02-19T13:38:17.651Z,9.60
2019-02-19T13:39:24.554Z,9.60
2019-02-19T13:40:31.630Z,9.60
2019-02-19T13:41:38.352Z,9.60
2019-02-19T13:42:45.758Z,9.60
2019-02-19T13:43:52.492Z,9.60
2019-02-19T13:44:59.183Z,9.60
2019-02-19T13:46:06.131Z,9.50
2019-02-19T13:47:12.773Z,9.50
2019-02-19T13:48:19.807Z,9.50
2019-02-19T13:49:26.479Z,9.40
2019-02-19T13:50:33.292Z,9.40
2019-02-19T13:51:40.577Z,9.40
2019-02-19T13:53:21.560Z,9.30
2019-02-19T13:54:38.141Z,9.20
2019-02-19T13:55:48.555Z,9.20
2019-02-19T13:56:55.652Z,9.10
2019-02-19T13:58:02.748Z,9.10
2019-02-19T13:59:09.701Z,9.10
2019-02-19T14:00:21.696Z,9.10
2019-02-19T14:01:28.746Z,9.00
2019-02-19T14:02:35.663Z,9.10
2019-02-19T14:03:42.346Z,9.10
2019-02-19T14:04:49.420Z,9.20
2019-02-19T14:05:56.453Z,9.30
2019-02-19T14:07:03.566Z,9.40
2019-02-19T14:08:14.538Z,9.40
2019-02-19T14:09:19.813Z,9.30
2019-02-19T14:10:26.915Z,9.30
2019-02-19T14:11:34.001Z,9.30
2019-02-19T14:12:41.125Z,9.30
2019-02-19T14:13:56.451Z,9.30
2019-02-19T14:15:12.076Z,9.30
2019-02-19T14:16:23.871Z,9.30
2019-02-19T14:17:30.955Z,9.30
2019-02-19T14:18:58.524Z,9.30
2019-02-19T14:20:23.570Z,9.30
2019-02-19T14:21:56.581Z,9.40
2019-02-19T14:23:28.315Z,9.30
2019-02-19T14:24:52.026Z,9.30
2019-02-19T14:26:16.443Z,9.30
2019-02-19T14:27:57.332Z,9.30
2019-02-19T14:29:38.570Z,9.30
2019-02-19T14:31:13.878Z,9.30
2019-02-19T14:32:34.309Z,9.30
2019-02-19T14:34:11.995Z,9.40
2019-02-19T14:35:36.372Z,9.40
2019-02-19T14:37:02.688Z,9.50
2019-02-19T14:38:20.780Z,9.60
2019-02-19T14:39:55.490Z,9.60
2019-02-19T14:41:36.422Z,9.60
2019-02-19T14:43:04.378Z,9.70
2019-02-19T14:44:28.848Z,9.70
2019-02-19T14:46:00.639Z,9.70
2019-02-19T14:47:16.629Z,9.70
2019-02-19T14:48:45.353Z,9.70
2019-02-19T14:50:14.026Z,9.70
2019-02-19T14:51:39.548Z,9.70
2019-02-19T14:53:08.484Z,9.60
2019-02-19T14:54:43.250Z,9.60
2019-02-19T14:56:12.399Z,9.60
2019-02-19T14:57:28.966Z,9.60
2019-02-19T14:58:53.531Z,9.60
2019-02-19T15:00:14.713Z,9.60
2019-02-19T15:01:50.514Z,9.60
2019-02-19T15:03:14.701Z,9.60
2019-02-19T15:04:53.062Z,9.60